createdAt,value
2022-11-09T00:04:22.400Z,6.89
2022-11-09T00:14:49.853Z,6.71
2022-11-09T00:25:17.755Z,6.51
2022-11-09T00:35:45.092Z,6.50
2022-11-09T00:46:12.893Z,6.47
2022-11-09T00:56:40.645Z,6.48
2022-11-09T01:07:09.601Z,6.39
2022-11-09T01:17:37.042Z,6.25
2022-11-09T01:28:04.431Z,6.27
2022-11-09T01:38:32.120Z,6.25
2022-11-09T01:49:04.833Z,6.22
2022-11-09T01:59:35.185Z,6.15
2022-11-09T02:10:09.162Z,6.17
2022-11-09T02:20:47.742Z,6.03
2022-11-09T02:31:18.132Z,5.94
2022-11-09T02:41:49.481Z,5.97
2022-11-09T02:52:16.875Z,6.03
2022-11-09T03:02:44.374Z,5.97
2022-11-09T03:13:11.693Z,5.98
2022-11-09T03:23:38.917Z,6.00
2022-11-09T03:34:06.142Z,5.93
2022-11-09T03:44:33.404Z,5.91
2022-11-09T03:55:00.666Z,5.79
2022-11-09T04:05:28.794Z,5.76
2022-11-09T04:15:56.053Z,5.64
2022-11-09T04:26:23.303Z,5.47
2022-11-09T04:36:50.699Z,5.44
2022-11-09T04:47:17.977Z,5.32
2022-11-09T04:57:45.290Z,5.40
2022-11-09T05:08:12.679Z,5.55
2022-11-09T05:18:40.040Z,5.73
2022-11-09T05:29:09.848Z,5.82
2022-11-09T05:39:37.171Z,5.72
2022-11-09T05:50:04.778Z,5.83
2022-11-09T06:00:32.326Z,6.07
2022-11-09T06:11:05.822Z,6.72
2022-11-09T06:21:33.079Z,7.40
2022-11-09T06:32:00.683Z,7.70
2022-11-09T06:42:28.001Z,7.82
2022-11-09T06:52:59.027Z,8.17
2022-11-09T07:03:26.740Z,8.40
2022-11-09T07:13:57.417Z,8.45
2022-11-09T07:24:25.460Z,8.36
2022-11-09T07:35:05.988Z,8.56
2022-11-09T07:45:58.886Z,9.12
2022-11-09T07:56:50.855Z,9.08
2022-11-09T08:07:42.939Z,9.23
2022-11-09T08:18:42.902Z,9.40
2022-11-09T08:29:48.912Z,9.64
2022-11-09T08:40:42.831Z,9.93
2022-11-09T08:51:34.959Z,10.21
2022-11-09T09:02:27.942Z,10.39
2022-11-09T09:13:20.915Z,10.47
2022-11-09T09:24:12.868Z,10.60
2022-11-09T09:35:04.808Z,10.72
2022-11-09T09:46:00.827Z,10.80
2022-11-09T09:56:58.833Z,10.96
2022-11-09T10:07:55.842Z,11.20
2022-11-09T10:19:17.753Z,11.43
2022-11-09T10:30:09.808Z,11.52
2022-11-09T10:41:07.817Z,11.79
2022-11-09T10:51:59.795Z,12.01
2022-11-09T11:03:00.736Z,12.20
2022-11-09T11:13:54.735Z,12.28
2022-11-09T11:24:57.759Z,12.36
2022-11-09T11:35:57.750Z,12.52
2022-11-09T11:47:00.830Z,12.66
2022-11-09T11:58:05.800Z,12.75
2022-11-09T12:09:19.693Z,12.81
2022-11-09T12:20:27.749Z,12.76
2022-11-09T12:31:30.737Z,12.84
2022-11-09T12:42:28.680Z,12.89
2022-11-09T12:53:23.199Z,12.92
2022-11-09T13:04:15.751Z,12.94
2022-11-09T13:15:07.728Z,12.90
2022-11-09T13:26:00.655Z,12.86
2022-11-09T13:36:52.789Z,12.87
2022-11-09T13:47:46.703Z,12.83
2022-11-09T13:58:44.650Z,12.75
2022-11-09T14:09:23.140Z,12.61
2022-11-09T14:20:00.247Z,12.49
2022-11-09T14:30:29.587Z,12.32
2022-11-09T14:40:57.531Z,12.24
2022-11-09T14:51:31.677Z,12.20
2022-11-09T15:02:08.814Z,12.13
2022-11-09T15:12:41.234Z,12.03
2022-11-09T15:23:39.096Z,11.89
2022-11-09T15:34:22.422Z,11.71
2022-11-09T15:44:54.336Z,11.75
2022-11-09T15:55:23.404Z,11.83
2022-11-09T16:05:50.684Z,11.74
2022-11-09T16:16:18.242Z,11.79
2022-11-09T16:26:45.903Z,11.68
2022-11-09T16:37:13.547Z,11.28
2022-11-09T16:47:45.431Z,11.27
2022-11-09T16:58:12.792Z,11.29
2022-11-09T17:08:40.779Z,11.14
2022-11-09T17:19:08.179Z,11.15
2022-11-09T17:29:37.487Z,11.03
2022-11-09T17:40:05.189Z,10.74
2022-11-09T17:50:32.593Z,10.49
2022-11-09T18:01:07.684Z,10.18
2022-11-09T18:11:35.623Z,9.90
2022-11-09T18:22:04.295Z,9.73
2022-11-09T18:32:34.079Z,9.54
2022-11-09T18:43:01.393Z,9.45
2022-11-09T18:53:30.705Z,9.45
2022-11-09T19:04:00.556Z,9.39
2022-11-09T19:14:28.697Z,9.29
2022-11-09T19:24:56.038Z,9.33
2022-11-09T19:35:26.353Z,9.29
2022-11-09T19:45:55.932Z,9.30
2022-11-09T19:56:25.094Z,9.30
2022-11-09T20:06:52.527Z,9.23
2022-11-09T20:17:19.884Z,9.21
2022-11-09T20:27:47.207Z,9.16
2022-11-09T20:38:14.527Z,9.30
2022-11-09T20:48:57.641Z,9.27
2022-11-09T20:59:25.245Z,9.26
2022-11-09T21:09:52.592Z,9.31
2022-11-09T21:20:20.329Z,9.24
2022-11-09T21:30:47.667Z,9.20
2022-11-09T21:41:32.543Z,9.16
2022-11-09T21:52:00.404Z,9.15
2022-11-09T22:02:27.720Z,9.17
2022-11-09T22:13:12.807Z,9.16
2022-11-09T22:23:40.312Z,9.26
2022-11-09T22:34:07.611Z,9.42
2022-11-09T22:44:34.936Z,9.38
2022-11-09T22:55:02.226Z,9.37
2022-11-09T23:05:29.405Z,9.44
2022-11-09T23:16:01.356Z,9.56
2022-11-09T23:26:29.380Z,9.49
2022-11-09T23:36:56.644Z,9.33
2022-11-09T23:47:24.150Z,9.34
2022-11-09T23:57:51.700Z,9.36
